Time;durP1;ratioP1;P1;durP2;ratioP2;P2;SDS_P1;SDS_P2;PMS_P1;PMS_P2;Temp;Humidity;BMP_temperature;BMP_pressure;BME280_temperature;BME280_humidity;BME280_pressure;Samples;Min_cycle;Max_cycle;Signal;HPM_P1;HPM_P2
2022/04/27 00:00:33;;;;;;;13.37;11.63;;;8.10;98.40;;;;;;5077575;28;20490;-58
2022/04/27 00:03:01;;;;;;;12.93;10.90;;;8.10;83.40;;;;;;5076707;28;20465;-58
2022/04/27 00:05:29;;;;;;;13.33;11.10;;;8.10;65.10;;;;;;5077964;28;20461;-59
2022/04/27 00:07:59;;;;;;;12.40;11.07;;;8.10;93.30;;;;;;5076813;28;20489;-59
2022/04/27 00:10:32;;;;;;;15.50;12.23;;;8.20;99.90;;;;;;5077146;28;20602;-57
2022/04/27 00:13:03;;;;;;;13.70;11.00;;;8.10;99.10;;;;;;5076718;28;20465;-59
2022/04/27 00:15:32;;;;;;;11.20;10.10;;;8.10;44.40;;;;;;5077079;28;20462;-59
2022/04/27 00:17:59;;;;;;;15.60;11.40;;;8.10;28.80;;;;;;5062208;28;20518;-59
2022/04/27 00:20:28;;;;;;;12.40;11.10;;;8.10;55.60;;;;;;5077248;28;20458;-56
2022/04/27 00:22:55;;;;;;;13.27;11.10;;;8.10;50.90;;;;;;5077403;28;20799;-57
2022/04/27 00:25:28;;;;;;;16.60;11.20;;;8.10;55.00;;;;;;5076637;28;20442;-58
2022/04/27 00:27:55;;;;;;;11.80;10.60;;;8.10;41.80;;;;;;5076539;28;20469;-59
2022/04/27 00:30:25;;;;;;;15.03;11.13;;;8.00;42.00;;;;;;5075974;28;20538;-59
2022/04/27 00:33:00;;;;;;;13.33;11.27;;;8.00;64.60;;;;;;5071783;28;20511;-59
2022/04/27 00:35:29;;;;;;;13.40;11.03;;;8.00;76.50;;;;;;5077342;28;20518;-57
2022/04/27 00:38:01;;;;;;;11.87;10.67;;;7.90;41.80;;;;;;5083328;28;20519;-59
2022/04/27 00:40:28;;;;;;;13.37;10.73;;;7.90;14.60;;;;;;5076435;28;20465;-58
2022/04/27 00:42:55;;;;;;;11.87;10.00;;;8.00;13.80;;;;;;5076651;28;20481;-58
2022/04/27 00:45:24;;;;;;;15.50;10.77;;;7.90;13.60;;;;;;5075382;28;20440;-58
2022/04/27 00:47:51;;;;;;;12.73;11.10;;;7.80;1.00;;;;;;5076496;28;20473;-59
2022/04/27 00:50:21;;;;;;;13.07;10.87;;;7.90;1.00;;;;;;5076749;28;20607;-59
2022/04/27 00:52:49;;;;;;;14.20;11.00;;;7.90;1.00;;;;;;5075443;28;20979;-59
2022/04/27 00:55:19;;;;;;;13.90;11.00;;;7.80;1.00;;;;;;5075686;28;20472;-58
2022/04/27 00:57:47;;;;;;;11.57;10.43;;;7.70;1.00;;;;;;5076136;28;20470;-59
2022/04/27 01:00:18;;;;;;;16.53;11.70;;;7.80;1.00;;;;;;5076142;28;20514;-58
2022/04/27 01:13:29;;;;;;;11.00;9.90;;;7.80;1.00;;;;;;5036748;28;20502;-59
2022/04/27 01:15:59;;;;;;;14.50;10.87;;;7.80;1.00;;;;;;5035060;28;20520;-59
2022/04/27 01:18:26;;;;;;;13.23;11.47;;;7.70;1.00;;;;;;5035395;28;20467;-58
2022/04/27 01:20:56;;;;;;;12.67;10.87;;;7.70;1.00;;;;;;5036691;28;20459;-57
2022/04/27 01:23:23;;;;;;;11.77;10.53;;;7.70;1.00;;;;;;5040097;28;20550;-59
2022/04/27 01:25:57;;;;;;;13.23;10.60;;;7.70;17.70;;;;;;5040594;28;20828;-58
2022/04/27 01:28:28;;;;;;;17.90;10.90;;;7.70;29.00;;;;;;5040656;28;20459;-58
2022/04/27 01:30:59;;;;;;;13.03;11.50;;;7.70;45.30;;;;;;5040868;28;21017;-59
2022/04/27 01:33:30;;;;;;;13.60;11.40;;;7.80;48.40;;;;;;5040826;28;20462;-58
2022/04/27 01:35:59;;;;;;;12.93;11.43;;;7.80;32.30;;;;;;5041146;28;20457;-57
2022/04/27 01:38:28;;;;;;;15.60;10.50;;;7.70;33.80;;;;;;5040267;28;20903;-58
2022/04/27 01:40:56;;;;;;;15.00;11.50;;;7.70;49.50;;;;;;5040841;28;20490;-58
2022/04/27 01:43:24;;;;;;;11.73;10.20;;;7.60;41.50;;;;;;5041133;28;20518;-58
2022/04/27 01:45:51;;;;;;;13.00;10.53;;;7.60;41.50;;;;;;5039988;28;20458;-58
2022/04/27 01:48:21;;;;;;;11.63;10.47;;;7.60;47.20;;;;;;5040422;28;20508;-59
2022/04/27 01:50:51;;;;;;;11.40;10.40;;;7.60;70.90;;;;;;5040575;28;20596;-58
2022/04/27 01:56:14;;;;;;;17.03;10.30;;;7.60;91.00;;;;;;5039346;28;20454;-58
2022/04/27 01:58:44;;;;;;;14.07;11.13;;;7.60;96.30;;;;;;5040335;28;20883;-58
2022/04/27 02:01:15;;;;;;;18.03;12.23;;;7.60;84.50;;;;;;5040633;28;20463;-59
2022/04/27 02:03:44;;;;;;;13.00;11.40;;;7.60;72.30;;;;;;5040588;28;20545;-59
2022/04/27 02:06:11;;;;;;;13.13;11.93;;;7.60;80.20;;;;;;5039482;28;20466;-58
2022/04/27 02:08:42;;;;;;;15.43;10.87;;;7.60;55.00;;;;;;5040151;28;20452;-58
2022/04/27 02:11:09;;;;;;;18.93;12.63;;;7.60;93.50;;;;;;5043525;28;20490;-58
2022/04/27 02:13:36;;;;;;;14.17;11.13;;;7.60;85.70;;;;;;5079810;28;20889;-59
2022/04/27 02:16:06;;;;;;;14.90;12.40;;;7.60;66.30;;;;;;5078693;28;20457;-57
2022/04/27 02:18:49;;;;;;;13.37;10.60;;;7.60;78.80;;;;;;5080025;28;20475;-58
2022/04/27 02:21:17;;;;;;;15.20;11.50;;;7.50;68.10;;;;;;5076775;28;20488;-59
2022/04/27 02:23:46;;;;;;;13.90;10.90;;;7.50;62.90;;;;;;5080086;28;20488;-59
2022/04/27 02:26:20;;;;;;;16.57;11.80;;;7.50;94.50;;;;;;5079135;28;20479;-58
2022/04/27 02:28:48;;;;;;;12.63;11.30;;;7.60;98.60;;;;;;5080055;28;20515;-58
2022/04/27 02:31:17;;;;;;;13.47;11.60;;;7.50;95.90;;;;;;5079560;28;20579;-58
2022/04/27 02:33:47;;;;;;;17.00;12.37;;;7.50;49.90;;;;;;5078847;28;20455;-58
2022/04/27 02:36:14;;;;;;;12.93;11.37;;;7.40;39.00;;;;;;5079671;28;20485;-59
2022/04/27 02:38:41;;;;;;;16.10;13.20;;;7.50;52.20;;;;;;5079029;28;20488;-59
2022/04/27 02:41:09;;;;;;;14.60;12.30;;;7.50;96.20;;;;;;5079659;28;20465;-58
2022/04/27 02:43:36;;;;;;;13.40;12.07;;;7.50;90.50;;;;;;5079739;28;20547;-58
2022/04/27 02:46:09;;;;;;;14.93;13.13;;;7.50;82.00;;;;;;5079721;28;20488;-59
2022/04/27 02:48:36;;;;;;;11.93;10.83;;;7.40;50.30;;;;;;5079209;28;20461;-58
2022/04/27 02:53:50;;;;;;;15.73;11.90;;;7.40;3.20;;;;;;5047768;28;20441;-58
2022/04/27 02:56:19;;;;;;;13.97;11.90;;;7.40;1.00;;;;;;5079396;28;20515;-58
2022/04/27 02:58:49;;;;;;;12.53;11.33;;;7.30;14.70;;;;;;5079017;28;20566;-59
2022/04/27 03:01:22;;;;;;;14.50;13.00;;;7.30;7.60;;;;;;5079094;28;20453;-59
2022/04/27 03:03:51;;;;;;;15.63;12.43;;;7.30;17.30;;;;;;5079534;28;20457;-59
2022/04/27 03:06:20;;;;;;;14.83;12.47;;;7.40;31.30;;;;;;5078921;28;20458;-59
2022/04/27 03:08:56;;;;;;;18.50;12.47;;;7.30;37.60;;;;;;5078667;28;20469;-59
2022/04/27 03:11:27;;;;;;;14.20;12.80;;;7.30;41.70;;;;;;5078200;28;20551;-59
2022/04/27 03:13:54;;;;;;;19.00;14.23;;;7.30;14.40;;;;;;5078439;28;20853;-59
2022/04/27 03:16:24;;;;;;;14.67;13.30;;;7.20;19.20;;;;;;5078762;28;20515;-59
2022/04/27 03:18:51;;;;;;;16.27;13.30;;;7.30;54.10;;;;;;5078409;28;20582;-59
2022/04/27 03:21:18;;;;;;;14.10;12.60;;;7.30;44.30;;;;;;5079042;28;20893;-59
2022/04/27 03:23:45;;;;;;;17.27;13.10;;;7.20;16.60;;;;;;5078962;28;20927;-59
2022/04/27 03:26:14;;;;;;;17.07;13.10;;;7.20;24.30;;;;;;5078622;28;20461;-59
2022/04/27 03:28:48;;;;;;;16.47;13.37;;;7.20;32.30;;;;;;5076995;28;20534;-59
2022/04/27 03:31:17;;;;;;;16.63;13.97;;;7.20;56.00;;;;;;5057278;28;20937;-59
2022/04/27 03:33:44;;;;;;;17.27;13.10;;;7.20;78.00;;;;;;5062421;28;20468;-58
2022/04/27 03:36:14;;;;;;;20.53;14.20;;;7.10;62.40;;;;;;5077416;28;20468;-59
2022/04/27 03:38:42;;;;;;;15.53;13.93;;;7.10;83.00;;;;;;5077937;28;20523;-59
2022/04/27 03:41:12;;;;;;;16.00;13.43;;;7.10;99.90;;;;;;5077937;28;20461;-59
2022/04/27 03:43:47;;;;;;;14.73;12.50;;;7.20;99.90;;;;;;5077852;28;20508;-60
2022/04/27 03:46:16;;;;;;;15.57;13.97;;;7.10;95.50;;;;;;5078660;28;20461;-60
2022/04/27 03:48:43;;;;;;;14.80;13.30;;;7.10;82.60;;;;;;5078223;28;20462;-58
2022/04/27 03:51:14;;;;;;;19.60;14.67;;;7.10;49.40;;;;;;5077598;28;20543;-59
2022/04/27 03:53:44;;;;;;;14.77;12.70;;;7.10;31.40;;;;;;5078450;28;20522;-59
2022/04/27 03:56:21;;;;;;;20.33;13.70;;;7.10;51.20;;;;;;5077609;28;20539;-59
2022/04/27 03:59:06;;;;;;;19.80;14.57;;;7.10;92.10;;;;;;5077474;28;20869;-60
2022/04/27 04:01:35;;;;;;;17.00;15.20;;;7.10;99.90;;;;;;5077540;28;20933;-60
2022/04/27 04:04:02;;;;;;;17.73;14.30;;;7.10;99.90;;;;;;5077939;28;20946;-60
2022/04/27 04:06:29;;;;;;;22.80;15.50;;;7.00;99.90;;;;;;5077615;28;20507;-60
2022/04/27 04:08:56;;;;;;;17.67;14.63;;;6.90;99.90;;;;;;5077898;28;20741;-60
2022/04/27 04:11:23;;;;;;;15.90;14.17;;;6.90;99.90;;;;;;5076539;28;20498;-60
2022/04/27 04:13:50;;;;;;;18.73;15.30;;;6.90;99.90;;;;;;5077524;28;20461;-60
2022/04/27 04:16:17;;;;;;;17.40;15.50;;;7.00;99.90;;;;;;5076747;28;20461;-60
2022/04/27 04:18:46;;;;;;;17.63;15.07;;;7.00;99.90;;;;;;5077298;28;20457;-60
2022/04/27 04:21:18;;;;;;;17.57;14.40;;;7.00;99.90;;;;;;5076895;28;20515;-60
2022/04/27 04:23:48;;;;;;;19.60;15.10;;;7.00;99.90;;;;;;5078148;28;20461;-60
2022/04/27 04:29:00;;;;;;;16.30;14.60;;;6.90;99.90;;;;;;5073361;28;20527;-60
2022/04/27 04:31:28;;;;;;;17.50;15.70;;;6.90;99.90;;;;;;5077483;28;20485;-60
2022/04/27 04:33:59;;;;;;;18.47;14.50;;;7.00;99.90;;;;;;5076453;28;20493;-63
2022/04/27 04:36:28;;;;;;;19.70;15.23;;;6.90;99.90;;;;;;5074362;28;20527;-63
2022/04/27 04:38:57;;;;;;;17.00;15.10;;;6.90;99.90;;;;;;5076647;28;20457;-63
2022/04/27 04:41:24;;;;;;;20.23;16.03;;;6.90;99.90;;;;;;5075116;28;20501;-63
2022/04/27 04:43:53;;;;;;;18.50;15.87;;;6.90;99.90;;;;;;5075691;28;20461;-63
2022/04/27 04:46:26;;;;;;;19.20;15.90;;;7.00;99.90;;;;;;5075807;28;20454;-63
2022/04/27 04:48:59;;;;;;;17.53;15.67;;;7.10;99.90;;;;;;5073689;28;20515;-63
2022/04/27 04:51:29;;;;;;;21.60;16.23;;;7.10;99.90;;;;;;5075904;28;20538;-63
2022/04/27 04:53:56;;;;;;;16.47;14.77;;;7.10;99.90;;;;;;5076930;28;20458;-63
2022/04/27 04:56:23;;;;;;;18.10;14.70;;;7.00;99.90;;;;;;5075522;28;20461;-63
2022/04/27 04:58:52;;;;;;;21.13;14.50;;;7.10;99.90;;;;;;5076381;28;20587;-63
2022/04/27 05:01:21;;;;;;;20.77;15.40;;;7.00;99.90;;;;;;5076421;28;20457;-63
2022/04/27 05:03:49;;;;;;;22.37;15.73;;;6.90;99.90;;;;;;5075359;28;20464;-63
2022/04/27 05:06:18;;;;;;;17.67;15.77;;;7.00;99.90;;;;;;5075839;28;20474;-63
2022/04/27 05:08:47;;;;;;;14.90;13.40;;;7.00;99.90;;;;;;5072814;28;20893;-63
2022/04/27 05:11:14;;;;;;;17.13;14.50;;;7.00;99.90;;;;;;5073687;28;20530;-63
2022/04/27 05:13:43;;;;;;;15.63;14.03;;;7.00;99.90;;;;;;5075727;28;20514;-63
2022/04/27 05:16:15;;;;;;;15.73;14.13;;;7.10;99.90;;;;;;5074998;28;20453;-63
2022/04/27 05:18:43;;;;;;;17.57;13.83;;;7.20;96.70;;;;;;5073845;28;20458;-63
2022/04/27 05:21:10;;;;;;;17.10;15.50;;;7.20;24.80;;;;;;5073725;28;20511;-63
2022/04/27 05:23:40;;;;;;;16.97;14.50;;;7.30;15.20;;;;;;5075683;28;20809;-63
2022/04/27 05:26:08;;;;;;;21.83;14.40;;;7.40;30.10;;;;;;5076899;28;20515;-63
2022/04/27 05:34:17;;;;;;;16.03;14.13;;;7.60;1.00;;;;;;5012764;28;20961;-63
2022/04/27 05:36:47;;;;;;;19.23;14.63;;;7.60;1.00;;;;;;5012556;28;20456;-63
2022/04/27 05:39:21;;;;;;;16.57;14.10;;;7.70;1.00;;;;;;5040877;28;20898;-64
2022/04/27 05:41:51;;;;;;;16.23;14.50;;;7.70;1.00;;;;;;5073393;28;20449;-63
2022/04/27 05:44:21;;;;;;;21.20;13.73;;;7.70;1.00;;;;;;5075648;28;20922;-64
2022/04/27 05:46:49;;;;;;;14.97;13.40;;;7.80;1.00;;;;;;5074414;28;20933;-64
2022/04/27 05:49:16;;;;;;;18.33;14.50;;;7.80;1.00;;;;;;5074401;28;20466;-64
2022/04/27 05:51:43;;;;;;;19.17;14.30;;;7.90;1.00;;;;;;5074951;28;20485;-64
2022/04/27 05:54:10;;;;;;;15.10;13.60;;;8.00;1.00;;;;;;5076609;28;20506;-64
2022/04/27 05:56:47;;;;;;;15.93;14.27;;;8.00;1.00;;;;;;5075801;28;20477;-64
2022/04/27 05:59:14;;;;;;;15.10;12.87;;;8.10;1.00;;;;;;5076314;28;20494;-64
2022/04/27 06:01:45;;;;;;;13.50;12.10;;;8.10;1.00;;;;;;5075040;28;20814;-64
2022/04/27 06:04:15;;;;;;;16.10;13.87;;;8.10;1.00;;;;;;5058556;28;20788;-64
2022/04/27 06:06:46;;;;;;;15.70;12.70;;;8.10;1.00;;;;;;5072857;28;20457;-64
2022/04/27 06:09:14;;;;;;;12.27;11.10;;;8.20;1.00;;;;;;5079757;28;20469;-64
2022/04/27 06:11:41;;;;;;;13.27;11.43;;;8.20;1.00;;;;;;5079002;28;20492;-64
2022/04/27 06:14:11;;;;;;;14.73;11.50;;;8.40;1.00;;;;;;5078551;28;20461;-64
2022/04/27 06:16:41;;;;;;;13.50;11.90;;;8.50;1.00;;;;;;5078192;28;20514;-64
2022/04/27 06:19:10;;;;;;;13.63;10.63;;;8.50;1.00;;;;;;5077687;28;20514;-64
2022/04/27 06:21:39;;;;;;;14.03;12.53;;;8.60;1.00;;;;;;5078386;28;20489;-64
2022/04/27 06:24:12;;;;;;;13.20;11.73;;;8.70;1.00;;;;;;5076584;28;20456;-65
2022/04/27 06:26:39;;;;;;;14.80;12.33;;;8.90;1.00;;;;;;5077768;28;20461;-65
2022/04/27 06:29:16;;;;;;;12.47;10.70;;;9.30;1.00;;;;;;5077687;28;20457;-66
2022/04/27 06:31:46;;;;;;;15.93;11.30;;;9.50;1.00;;;;;;5078359;28;20768;-66
2022/04/27 06:34:13;;;;;;;13.10;10.40;;;9.90;1.00;;;;;;5077969;28;20516;-66
2022/04/27 06:36:40;;;;;;;10.90;9.60;;;10.30;99.90;;;;;;5076299;28;20454;-66
2022/04/27 06:39:09;;;;;;;12.73;9.97;;;10.50;99.90;;;;;;5079287;28;20468;-66
2022/04/27 06:41:36;;;;;;;12.70;9.23;;;10.60;99.90;;;;;;5075474;28;20468;-66
2022/04/27 06:44:04;;;;;;;10.20;9.07;;;10.70;99.90;;;;;;5058723;28;20520;-66
2022/04/27 06:46:32;;;;;;;8.77;7.87;;;10.60;99.90;;;;;;5071930;28;20453;-66
2022/04/27 06:49:01;;;;;;;13.10;8.70;;;10.70;99.90;;;;;;5075282;28;20962;-66
2022/04/27 06:51:31;;;;;;;10.37;9.40;;;10.80;99.90;;;;;;5080689;28;20457;-67
2022/04/27 06:54:07;;;;;;;10.17;9.10;;;11.00;99.90;;;;;;5081885;28;20493;-67
2022/04/27 06:56:36;;;;;;;11.20;8.53;;;11.30;99.90;;;;;;5080968;28;20464;-67
2022/04/27 06:59:03;;;;;;;12.53;8.50;;;11.50;99.90;;;;;;5079977;28;20861;-67
2022/04/27 07:01:39;;;;;;;11.93;8.73;;;11.60;99.90;;;;;;5082283;28;20444;-68
2022/04/27 07:04:12;;;;;;;8.87;8.07;;;11.50;99.90;;;;;;5078852;28;20551;-68
2022/04/27 07:06:39;;;;;;;12.80;8.90;;;11.60;99.90;;;;;;5078322;28;20465;-68
2022/04/27 07:09:11;;;;;;;9.37;8.53;;;12.20;99.90;;;;;;5078867;28;20461;-68
2022/04/27 07:11:40;;;;;;;9.43;8.40;;;12.50;99.90;;;;;;5077135;28;20588;-68
2022/04/27 07:14:11;;;;;;;11.13;8.50;;;12.60;99.90;;;;;;5077847;28;20500;-68
2022/04/27 07:16:47;;;;;;;8.60;7.10;;;12.70;99.90;;;;;;5077278;28;20551;-68
2022/04/27 07:19:14;;;;;;;8.87;7.97;;;12.60;99.90;;;;;;5076084;28;20518;-68
2022/04/27 07:21:42;;;;;;;10.57;8.00;;;12.90;99.90;;;;;;5079093;28;20579;-68
2022/04/27 07:24:09;;;;;;;8.53;7.23;;;13.00;99.90;;;;;;5077930;28;20458;-68
2022/04/27 07:26:38;;;;;;;16.17;7.67;;;13.00;99.90;;;;;;5077931;28;20461;-68
2022/04/27 07:29:24;;;;;;;8.70;7.80;;;13.00;99.90;;;;;;5078569;28;20947;-68
2022/04/27 07:31:56;;;;;;;13.93;8.53;;;13.40;99.90;;;;;;5075852;28;20971;-67
2022/04/27 07:34:23;;;;;;;9.87;7.77;;;13.30;99.90;;;;;;5077362;28;20449;-68
2022/04/27 07:36:52;;;;;;;8.63;7.83;;;13.10;99.90;;;;;;5078437;28;20518;-68
2022/04/27 07:39:22;;;;;;;9.27;8.37;;;13.60;99.90;;;;;;5078122;28;20491;-68
2022/04/27 07:41:49;;;;;;;9.07;7.93;;;13.50;99.90;;;;;;5078586;28;20461;-68
2022/04/27 07:44:18;;;;;;;9.73;7.73;;;13.70;99.90;;;;;;5075731;28;20469;-68
2022/04/27 07:46:48;;;;;;;10.40;8.57;;;14.00;99.90;;;;;;5074932;28;20469;-68
2022/04/27 07:49:19;;;;;;;14.10;8.30;;;14.30;99.90;;;;;;5075954;28;20500;-68
2022/04/27 07:51:49;;;;;;;8.80;7.83;;;14.70;99.90;;;;;;5077356;28;20461;-67
2022/04/27 07:54:19;;;;;;;9.30;8.33;;;14.70;99.90;;;;;;5077791;28;20497;-67
2022/04/27 07:56:48;;;;;;;8.50;7.67;;;14.40;99.90;;;;;;5076271;28;20952;-67
2022/04/27 07:59:15;;;;;;;8.17;7.47;;;14.50;99.90;;;;;;5076512;28;20460;-67
2022/04/27 08:01:45;;;;;;;9.80;8.70;;;14.60;99.90;;;;;;5086780;28;20915;-66
2022/04/27 08:04:16;;;;;;;9.57;8.77;;;14.60;99.90;;;;;;5080167;28;20458;-66
2022/04/27 08:06:53;;;;;;;9.00;7.20;;;14.70;99.90;;;;;;5076681;28;20469;-66
2022/04/27 08:09:23;;;;;;;10.17;8.83;;;15.10;99.90;;;;;;5076179;28;20467;-66
2022/04/27 08:11:51;;;;;;;8.10;7.40;;;15.30;99.90;;;;;;5076695;28;20493;-67
2022/04/27 08:14:18;;;;;;;9.80;8.13;;;15.60;99.90;;;;;;5077137;28;20529;-66
2022/04/27 08:16:45;;;;;;;8.73;7.60;;;15.30;99.90;;;;;;5076541;28;20846;-66
2022/04/27 08:19:18;;;;;;;8.80;7.93;;;14.80;99.90;;;;;;5077750;28;20511;-66
2022/04/27 08:21:45;;;;;;;12.00;9.33;;;15.20;99.90;;;;;;5077625;28;20462;-66
2022/04/27 08:24:17;;;;;;;9.37;8.47;;;15.30;99.90;;;;;;5076246;28;20530;-66
2022/04/27 08:26:44;;;;;;;11.87;8.13;;;15.80;99.90;;;;;;5076364;28;20484;-66
2022/04/27 08:29:11;;;;;;;9.03;7.33;;;15.70;99.90;;;;;;5077005;28;20472;-67
2022/04/27 08:31:38;;;;;;;8.20;7.40;;;15.80;99.90;;;;;;5077162;28;20466;-66
2022/04/27 08:34:08;;;;;;;9.80;8.60;;;16.10;99.90;;;;;;5077222;28;20529;-66
2022/04/27 08:36:35;;;;;;;9.50;8.03;;;16.20;99.90;;;;;;5077026;28;20506;-66
2022/04/27 08:39:05;;;;;;;11.87;7.97;;;16.50;99.90;;;;;;5075566;28;20914;-66
2022/04/27 08:41:34;;;;;;;9.00;7.60;;;16.40;99.90;;;;;;5076819;28;20797;-66
2022/04/27 08:44:01;;;;;;;9.00;7.67;;;16.50;99.90;;;;;;5089858;28;20913;-66
2022/04/27 08:46:30;;;;;;;7.67;6.87;;;16.70;99.90;;;;;;5076126;28;20931;-66
2022/04/27 08:49:03;;;;;;;8.77;6.70;;;16.70;99.90;;;;;;5076587;28;20518;-67
2022/04/27 08:51:30;;;;;;;8.80;6.80;;;16.70;99.90;;;;;;5076032;28;20465;-67
2022/04/27 08:54:03;;;;;;;9.73;7.20;;;16.20;99.90;;;;;;5075284;28;20493;-66
2022/04/27 08:56:39;;;;;;;11.23;7.97;;;16.80;99.90;;;;;;5076563;28;20507;-67
2022/04/27 08:59:08;;;;;;;8.30;7.70;;;16.50;99.90;;;;;;5077281;28;20460;-66
2022/04/27 09:01:38;;;;;;;9.13;8.33;;;16.40;99.90;;;;;;5075559;28;20462;-66
2022/04/27 09:04:18;;;;;;;10.00;7.17;;;17.20;99.90;;;;;;5075579;28;20473;-66
2022/04/27 09:06:49;;;;;;;8.47;7.67;;;17.40;99.90;;;;;;5075440;28;20917;-66
2022/04/27 09:09:39;;;;;;;8.33;7.60;;;17.70;99.90;;;;;;5075883;28;20465;-66
2022/04/27 09:12:16;;;;;;;8.97;8.10;;;17.80;99.90;;;;;;5074581;28;20504;-66
2022/04/27 09:14:44;;;;;;;8.77;7.20;;;17.90;99.90;;;;;;5076454;28;20833;-66
2022/04/27 09:23:03;;;;;;;12.57;8.50;;;17.80;99.90;;;;;;5072070;28;20452;-65
2022/04/27 09:25:35;;;;;;;9.73;8.73;;;16.90;99.90;;;;;;5070078;28;20465;-66
2022/04/27 09:28:09;;;;;;;9.47;8.67;;;16.30;99.90;;;;;;5075650;28;20464;-66
2022/04/27 09:30:39;;;;;;;9.70;8.70;;;17.20;99.90;;;;;;5058039;28;20976;-65
2022/04/27 09:33:09;;;;;;;9.57;8.47;;;17.70;99.90;;;;;;5061295;28;20583;-65
2022/04/27 09:35:38;;;;;;;10.13;8.40;;;17.30;99.90;;;;;;5073379;28;20519;-65
2022/04/27 09:38:23;;;;;;;8.77;7.93;;;16.90;99.90;;;;;;5071303;28;20519;-65
2022/04/27 09:40:54;;;;;;;8.37;7.57;;;16.90;99.90;;;;;;5075841;28;20472;-65
2022/04/27 09:43:42;;;;;;;10.07;9.17;;;17.00;99.90;;;;;;5079282;28;20465;-65
2022/04/27 09:46:17;;;;;;;11.30;8.30;;;16.70;99.90;;;;;;5074137;28;20475;-65
2022/04/27 09:48:48;;;;;;;8.73;7.93;;;17.40;99.90;;;;;;5077713;28;20555;-65
2022/04/27 09:51:15;;;;;;;10.47;8.07;;;17.80;99.90;;;;;;5078144;28;20831;-65
2022/04/27 09:53:48;;;;;;;9.93;8.30;;;16.90;99.90;;;;;;5080779;28;20488;-65
2022/04/27 09:56:17;;;;;;;8.57;7.77;;;16.70;99.90;;;;;;5077958;28;20468;-65
2022/04/27 09:58:49;;;;;;;8.60;7.90;;;16.90;99.90;;;;;;5080368;28;20460;-65
2022/04/27 10:01:19;;;;;;;9.53;8.47;;;17.70;99.90;;;;;;5080149;28;20912;-66
2022/04/27 10:03:58;;;;;;;9.60;7.90;;;17.50;99.90;;;;;;5080531;28;20810;-65
2022/04/27 10:06:25;;;;;;;9.10;8.20;;;18.30;99.90;;;;;;5078305;28;20510;-65
2022/04/27 10:08:53;;;;;;;10.30;9.40;;;16.80;99.90;;;;;;5075983;28;20567;-65
2022/04/27 10:11:26;;;;;;;9.67;8.03;;;16.70;99.90;;;;;;5078078;28;20493;-65
2022/04/27 10:13:55;;;;;;;10.53;8.33;;;17.90;99.90;;;;;;5079796;28;20930;-65
2022/04/27 10:16:23;;;;;;;8.73;7.77;;;17.90;99.90;;;;;;5079350;28;20507;-64
2022/04/27 10:18:50;;;;;;;9.60;8.70;;;17.40;99.90;;;;;;5079439;28;20962;-65
2022/04/27 10:21:56;;;;;;;10.20;9.30;;;18.40;99.90;;;;;;5079698;28;20465;-64
2022/04/27 10:24:49;;;;;;;9.80;8.77;;;18.70;99.90;;;;;;5079730;28;20546;-64
2022/04/27 10:27:18;;;;;;;10.00;9.00;;;17.10;99.90;;;;;;5076998;28;20491;-64
2022/04/27 10:29:52;;;;;;;9.33;8.63;;;17.30;99.90;;;;;;5079979;28;20518;-64
2022/04/27 10:32:36;;;;;;;11.00;9.20;;;17.70;99.90;;;;;;5075297;28;20555;-64
2022/04/27 10:35:31;;;;;;;10.53;9.47;;;17.50;99.90;;;;;;5079784;28;20497;-64
2022/04/27 10:38:24;;;;;;;11.53;10.43;;;18.10;99.90;;;;;;5078561;28;20461;-64
2022/04/27 10:41:05;;;;;;;11.13;10.07;;;17.80;99.90;;;;;;5079435;28;20457;-64
2022/04/27 10:43:43;;;;;;;10.07;9.20;;;18.10;99.90;;;;;;5078112;28;20827;-64
2022/04/27 10:46:43;;;;;;;10.90;10.00;;;16.90;99.90;;;;;;5075220;28;20514;-63
2022/04/27 10:49:23;;;;;;;10.97;9.97;;;16.30;99.90;;;;;;5073763;28;20901;-64
2022/04/27 10:52:02;;;;;;;10.77;9.37;;;16.30;99.90;;;;;;5079651;28;20516;-64
2022/04/27 10:54:34;;;;;;;12.13;11.03;;;16.60;99.90;;;;;;5076378;28;20497;-63
2022/04/27 10:57:41;;;;;;;13.43;10.13;;;16.60;99.90;;;;;;5078995;28;20465;-64
2022/04/27 11:00:11;;;;;;;11.43;10.30;;;16.20;99.90;;;;;;5074970;28;20538;-64
2022/04/27 11:02:42;;;;;;;10.90;10.00;;;16.50;99.90;;;;;;5078127;28;20465;-64
2022/04/27 11:05:22;;;;;;;14.40;10.87;;;17.00;99.90;;;;;;5079119;28;20457;-64
2022/04/27 11:08:00;;;;;;;10.77;9.87;;;16.90;99.90;;;;;;5078590;28;20465;-64
2022/04/27 11:10:35;;;;;;;12.00;10.90;;;16.50;99.90;;;;;;5078271;28;20518;-64
2022/04/27 11:13:07;;;;;;;11.10;10.03;;;16.90;99.90;;;;;;5077648;28;20499;-64
2022/04/27 11:15:37;;;;;;;12.50;11.30;;;18.30;99.90;;;;;;5077927;28;20493;-64
2022/04/27 11:18:06;;;;;;;12.60;11.43;;;18.30;99.90;;;;;;5078267;28;20542;-64
2022/04/27 11:20:37;;;;;;;12.03;10.90;;;19.40;99.90;;;;;;5078540;28;20468;-64
2022/04/27 11:23:21;;;;;;;11.60;10.50;;;20.00;99.90;;;;;;5078240;28;20745;-64
2022/04/27 11:25:51;;;;;;;10.83;9.83;;;18.20;99.90;;;;;;5078895;28;20526;-64
2022/04/27 11:28:19;;;;;;;11.50;10.53;;;18.30;99.90;;;;;;5077552;28;20461;-64
2022/04/27 11:30:48;;;;;;;11.13;10.23;;;18.20;99.90;;;;;;5076463;28;20474;-64
2022/04/27 11:33:18;;;;;;;10.77;9.87;;;18.00;99.90;;;;;;5078596;28;20923;-64
2022/04/27 11:35:47;;;;;;;12.17;11.17;;;18.30;99.90;;;;;;5078210;28;20480;-64
2022/04/27 11:38:23;;;;;;;11.30;10.30;;;19.50;99.90;;;;;;5078121;28;20469;-66
2022/04/27 11:40:52;;;;;;;11.43;10.43;;;20.50;99.90;;;;;;5074764;28;20964;-66
2022/04/27 11:43:24;;;;;;;12.10;11.10;;;20.10;99.90;;;;;;5075611;28;20782;-66
2022/04/27 11:45:52;;;;;;;11.60;10.60;;;19.60;99.90;;;;;;5071866;28;20467;-66
2022/04/27 11:48:33;;;;;;;11.80;10.63;;;20.50;99.90;;;;;;5075841;28;20511;-66
2022/04/27 11:51:12;;;;;;;11.13;10.03;;;21.60;99.90;;;;;;5075333;28;20582;-66
2022/04/27 11:53:46;;;;;;;12.07;10.83;;;20.10;99.90;;;;;;5076214;28;20511;-66
2022/04/27 11:56:16;;;;;;;11.30;10.30;;;19.10;99.90;;;;;;5076876;28;20464;-66
2022/04/27 11:58:48;;;;;;;11.90;10.60;;;19.10;99.90;;;;;;5077027;28;20796;-66
2022/04/27 12:01:24;;;;;;;10.77;9.87;;;19.60;99.90;;;;;;5075345;28;20461;-66
2022/04/27 12:06:37;;;;;;;12.53;11.53;;;20.80;99.90;;;;;;5072796;28;20893;-66
2022/04/27 12:09:10;;;;;;;12.07;10.97;;;19.40;99.90;;;;;;5076803;28;20858;-66
2022/04/27 12:11:39;;;;;;;13.33;12.17;;;18.50;99.90;;;;;;5074781;28;20539;-66
2022/04/27 12:14:10;;;;;;;11.47;10.53;;;18.10;99.90;;;;;;5072724;28;20571;-66
2022/04/27 12:16:44;;;;;;;13.23;12.10;;;18.30;99.90;;;;;;5073742;28;20577;-65
2022/04/27 12:19:13;;;;;;;12.50;11.43;;;18.20;99.90;;;;;;5073872;28;20457;-66
2022/04/27 12:21:45;;;;;;;13.60;12.40;;;18.20;99.90;;;;;;5072999;28;20462;-66
2022/04/27 12:24:20;;;;;;;11.70;10.70;;;18.80;99.90;;;;;;5074156;28;20435;-65
2022/04/27 12:26:47;;;;;;;12.43;11.43;;;19.40;99.90;;;;;;5075643;28;20457;-64
2022/04/27 12:29:16;;;;;;;13.40;12.30;;;19.00;99.90;;;;;;5074846;28;20453;-63
2022/04/27 12:31:43;;;;;;;12.33;11.20;;;19.50;99.90;;;;;;5072883;28;20549;-64
2022/04/27 12:39:42;;;;;;;14.37;13.17;;;20.50;99.90;;;;;;5074317;28;20488;-63
2022/04/27 12:42:19;;;;;;;13.40;12.20;;;19.70;99.90;;;;;;5074498;28;20443;-63
2022/04/27 12:44:47;;;;;;;13.70;12.30;;;19.20;99.90;;;;;;5070969;28;20457;-64
2022/04/27 12:47:21;;;;;;;12.40;11.30;;;19.00;99.90;;;;;;5080035;28;20469;-63
2022/04/27 12:50:01;;;;;;;15.33;12.17;;;18.60;99.90;;;;;;5068331;28;20484;-63
2022/04/27 12:52:34;;;;;;;13.63;12.23;;;18.00;99.90;;;;;;5073424;28;20542;-63
2022/04/27 12:55:07;;;;;;;13.97;12.67;;;17.10;99.90;;;;;;5073506;28;20927;-63
2022/04/27 12:57:44;;;;;;;14.00;12.70;;;16.90;99.90;;;;;;5069297;28;20476;-63
2022/04/27 13:00:12;;;;;;;13.87;12.77;;;16.70;99.90;;;;;;5065262;28;20461;-63
2022/04/27 13:02:39;;;;;;;14.07;12.80;;;16.50;99.90;;;;;;5073685;28;20461;-63
2022/04/27 13:05:11;;;;;;;15.17;13.80;;;16.70;99.90;;;;;;5074721;28;20464;-63
2022/04/27 13:07:47;;;;;;;14.83;13.40;;;17.40;99.90;;;;;;5072581;28;20520;-63
2022/04/27 13:13:03;;;;;;;15.03;12.33;;;18.90;99.90;;;;;;5077766;28;20476;-63
2022/04/27 13:15:35;;;;;;;12.90;11.70;;;19.00;99.90;;;;;;5073700;28;20533;-63
2022/04/27 13:18:02;;;;;;;14.40;13.03;;;19.30;99.90;;;;;;5073663;28;20461;-63
2022/04/27 13:20:34;;;;;;;14.37;13.00;;;19.10;99.90;;;;;;5075059;28;20870;-63
2022/04/27 13:23:03;;;;;;;12.80;11.73;;;18.80;99.90;;;;;;5075088;28;20470;-63
2022/04/27 13:25:30;;;;;;;14.87;13.37;;;18.80;99.90;;;;;;5074833;28;20457;-63
2022/04/27 13:28:09;;;;;;;13.80;12.47;;;19.70;99.90;;;;;;5074489;28;20519;-63
2022/04/27 13:30:42;;;;;;;13.73;12.53;;;20.60;99.90;;;;;;5075204;28;20493;-63
2022/04/27 13:33:12;;;;;;;12.53;11.60;;;21.40;99.90;;;;;;5074962;28;20519;-63
2022/04/27 13:35:43;;;;;;;12.60;11.50;;;22.10;99.90;;;;;;5074381;28;20492;-62
2022/04/27 13:38:18;;;;;;;13.37;12.17;;;21.80;99.90;;;;;;5074567;28;20475;-62